Time;durP1;ratioP1;P1;durP2;ratioP2;P2;SDS_P1;SDS_P2;PMS_P1;PMS_P2;Temp;Humidity;BMP_temperature;BMP_pressure;BME280_temperature;BME280_humidity;BME280_pressure;Samples;Min_cycle;Max_cycle;Signal;HPM_P1;HPM_P2
2022/01/24 00:01:45;;;;;;;8.93;4.70;;;6.40;99.90;;;;;;5031775;28;20539;-82
2022/01/24 00:04:11;;;;;;;7.85;5.05;;;5.50;99.90;;;;;;5032634;28;20117;-81
2022/01/24 00:06:38;;;;;;;8.50;4.60;;;5.50;99.90;;;;;;5035653;28;20049;-81
2022/01/24 00:09:05;;;;;;;7.25;4.43;;;5.50;99.90;;;;;;5034279;28;20021;-83
2022/01/24 00:11:42;;;;;;;9.00;5.20;;;5.50;99.90;;;;;;5035226;28;20068;-83
2022/01/24 00:27:22;;;;;;;8.93;5.25;;;5.50;99.90;;;;;;5041014;28;20033;-87
2022/01/24 00:29:48;;;;;;;8.93;4.95;;;;;;;;;;5033134;28;20038;-83
2022/01/24 00:32:14;;;;;;;7.63;4.70;;;5.40;99.90;;;;;;5029904;28;20040;-82
2022/01/24 00:34:40;;;;;;;9.38;4.65;;;5.40;99.90;;;;;;5039303;28;20021;-82
2022/01/24 00:37:06;;;;;;;6.95;4.45;;;5.40;99.90;;;;;;5034700;28;20021;-86
2022/01/24 00:39:32;;;;;;;8.30;4.85;;;5.40;99.90;;;;;;5036962;28;20060;-83
2022/01/24 00:47:28;;;;;;;7.72;4.30;;;5.40;99.90;;;;;;5035235;28;20034;-84
2022/01/24 00:53:01;;;;;;;7.60;4.80;;;5.40;99.90;;;;;;5030479;28;20045;-86
2022/01/24 00:55:48;;;;;;;7.55;4.50;;;3.40;99.90;;;;;;4976236;28;20066;-89
2022/01/24 00:58:14;;;;;;;7.18;4.40;;;5.40;99.90;;;;;;4960693;28;20094;-89
2022/01/24 01:00:41;;;;;;;8.00;4.60;;;;;;;;;;5004631;28;20052;-86
2022/01/24 01:03:07;;;;;;;7.88;4.68;;;;;;;;;;5045877;28;20485;-84
2022/01/24 01:05:55;;;;;;;8.20;4.68;;;5.40;99.90;;;;;;5039145;28;20041;-85
2022/01/24 01:19:19;;;;;;;7.70;4.68;;;5.60;99.90;;;;;;5037186;28;20032;-82
2022/01/24 01:21:45;;;;;;;8.95;5.38;;;5.10;99.90;;;;;;5034419;28;20081;-84
2022/01/24 01:24:10;;;;;;;9.40;4.95;;;5.10;99.90;;;;;;5032296;28;20041;-86
2022/01/24 01:26:46;;;;;;;10.02;4.70;;;5.30;99.90;;;;;;5031682;28;20025;-86
2022/01/24 01:29:23;;;;;;;9.13;4.88;;;5.00;99.90;;;;;;5034109;28;20093;-87
2022/01/24 01:55:39;;;;;;;7.80;5.22;;;4.80;99.90;;;;;;5029837;28;20594;-86
2022/01/24 01:58:10;;;;;;;8.55;5.55;;;4.70;99.90;;;;;;5034407;28;20022;-84
2022/01/24 02:00:48;;;;;;;10.30;5.22;;;5.80;99.90;;;;;;5031392;28;20057;-85
2022/01/24 02:03:14;;;;;;;8.23;5.00;;;4.70;99.90;;;;;;5030278;28;20026;-85
2022/01/24 02:05:40;;;;;;;8.90;5.10;;;5.00;99.90;;;;;;5036369;28;20026;-82
2022/01/24 02:08:07;;;;;;;9.30;5.22;;;4.40;99.90;;;;;;5034450;28;20029;-87
2022/01/24 02:10:35;;;;;;;8.48;5.03;;;6.40;99.90;;;;;;5033529;28;20458;-85
2022/01/24 02:13:01;;;;;;;9.75;5.72;;;4.60;99.90;;;;;;5035378;28;20052;-84
2022/01/24 02:18:47;;;;;;;7.97;4.90;;;4.50;99.90;;;;;;5033364;28;20049;-85
2022/01/24 02:25:53;;;;;;;8.10;5.18;;;7.30;99.90;;;;;;5027243;28;20044;-83
2022/01/24 02:28:21;;;;;;;10.13;6.30;;;6.10;99.90;;;;;;5027544;28;20033;-83
2022/01/24 02:33:33;;;;;;;9.85;5.35;;;5.10;99.90;;;;;;5034058;28;20041;-82
2022/01/24 02:35:59;;;;;;;9.07;5.68;;;4.40;99.90;;;;;;5036298;28;20029;-84
2022/01/24 02:49:11;;;;;;;9.45;6.05;;;4.30;99.90;;;;;;5031963;28;20056;-84
2022/01/24 02:51:46;;;;;;;10.43;5.80;;;4.30;99.90;;;;;;5044714;28;20033;-83
2022/01/24 02:54:23;;;;;;;10.30;5.82;;;4.20;99.90;;;;;;5040695;28;20055;-82
2022/01/24 02:56:49;;;;;;;8.07;5.40;;;4.20;99.90;;;;;;5034474;28;21211;-82
2022/01/24 02:59:15;;;;;;;8.70;5.30;;;4.90;99.90;;;;;;5036985;28;20036;-84
2022/01/24 03:01:45;;;;;;;10.82;5.93;;;4.40;99.90;;;;;;5036817;28;20033;-82
2022/01/24 03:04:11;;;;;;;9.63;5.70;;;4.10;99.90;;;;;;5039562;28;20041;-84
2022/01/24 03:06:37;;;;;;;12.23;5.65;;;4.10;99.90;;;;;;5040148;28;20034;-84
2022/01/24 03:09:07;;;;;;;8.55;5.60;;;4.10;99.90;;;;;;5038000;28;20093;-84
2022/01/24 03:14:24;;;;;;;11.20;5.93;;;4.00;99.90;;;;;;5034004;28;20060;-83
2022/01/24 03:16:50;;;;;;;8.95;5.68;;;4.00;99.90;;;;;;5039093;28;20041;-83
2022/01/24 03:19:16;;;;;;;8.32;5.60;;;4.50;99.90;;;;;;5034493;28;20025;-83
2022/01/24 03:21:43;;;;;;;8.57;5.10;;;4.10;99.90;;;;;;5030788;28;20071;-84
2022/01/24 03:24:09;;;;;;;8.10;4.55;;;4.70;99.90;;;;;;5039497;28;20037;-85
2022/01/24 03:26:35;;;;;;;10.75;5.70;;;4.50;99.90;;;;;;5034771;28;20041;-83
2022/01/24 03:31:33;;;;;;;8.75;5.05;;;4.00;99.90;;;;;;4992192;28;20057;-82
2022/01/24 03:34:02;;;;;;;9.65;5.15;;;4.00;99.90;;;;;;4985778;28;20034;-82
2022/01/24 03:36:30;;;;;;;8.80;5.05;;;3.90;99.90;;;;;;4972498;28;20038;-82
2022/01/24 03:38:56;;;;;;;7.53;4.32;;;3.90;99.90;;;;;;4992005;28;20027;-83
2022/01/24 03:41:25;;;;;;;7.63;4.45;;;5.10;99.90;;;;;;4948257;28;20046;-85
2022/01/24 03:43:52;;;;;;;10.13;4.78;;;4.00;99.90;;;;;;4945122;28;20100;-81
2022/01/24 03:48:53;;;;;;;9.18;4.95;;;4.00;99.90;;;;;;4980872;28;20035;-80
2022/01/24 03:51:22;;;;;;;7.97;4.35;;;3.90;99.90;;;;;;4964647;28;20062;-82
2022/01/24 03:53:50;;;;;;;7.43;3.95;;;4.00;99.90;;;;;;4976102;28;20034;-85
2022/01/24 03:56:24;;;;;;;7.78;4.18;;;4.90;99.90;;;;;;4984184;28;20023;-81
2022/01/24 03:58:52;;;;;;;7.13;4.28;;;4.00;99.90;;;;;;4964007;28;20030;-84
2022/01/24 04:01:20;;;;;;;8.13;4.07;;;4.00;99.90;;;;;;4940538;28;20038;-84
2022/01/24 04:03:47;;;;;;;7.72;4.40;;;3.90;99.90;;;;;;4944972;28;20137;-83
2022/01/24 04:06:14;;;;;;;7.45;4.10;;;3.90;99.90;;;;;;4976500;28;20031;-83
2022/01/24 04:08:41;;;;;;;7.15;4.20;;;3.80;99.90;;;;;;4976332;28;20353;-82
2022/01/24 04:11:11;;;;;;;7.57;4.20;;;3.80;99.90;;;;;;4960109;28;20035;-82
2022/01/24 04:13:40;;;;;;;6.93;4.05;;;3.70;99.90;;;;;;4989195;28;20174;-82
2022/01/24 04:18:54;;;;;;;6.35;3.70;;;5.50;99.90;;;;;;4980221;28;20032;-80
2022/01/24 04:21:27;;;;;;;4.85;3.45;;;3.70;99.90;;;;;;4968005;28;20033;-83
2022/01/24 04:24:06;;;;;;;7.07;3.70;;;3.70;99.90;;;;;;4967439;28;20094;-81
2022/01/24 04:26:36;;;;;;;6.18;3.83;;;3.70;99.90;;;;;;4970020;28;20041;-82
2022/01/24 04:29:07;;;;;;;7.18;3.85;;;3.70;99.90;;;;;;4974550;28;20018;-82
2022/01/24 04:31:34;;;;;;;6.53;3.58;;;3.60;99.90;;;;;;4960556;28;20042;-83
2022/01/24 04:34:01;;;;;;;9.40;3.95;;;3.60;99.90;;;;;;4956826;28;20471;-85
2022/01/24 04:36:28;;;;;;;7.32;4.13;;;3.60;99.90;;;;;;4959192;28;20039;-82
2022/01/24 04:38:57;;;;;;;8.45;4.70;;;3.60;99.90;;;;;;4960940;28;20034;-82
2022/01/24 04:41:29;;;;;;;11.00;4.43;;;3.60;99.90;;;;;;4979347;28;20043;-81
2022/01/24 04:44:43;;;;;;;8.63;4.65;;;3.70;99.90;;;;;;4978497;28;20062;-84
2022/01/24 04:54:41;;;;;;;6.93;4.32;;;3.50;99.90;;;;;;4966545;28;20038;-85
2022/01/24 04:57:11;;;;;;;8.35;4.25;;;3.50;99.90;;;;;;4964256;28;20218;-81
2022/01/24 04:59:39;;;;;;;6.57;3.83;;;3.50;99.90;;;;;;4980943;28;20023;-83
2022/01/24 05:02:06;;;;;;;6.28;4.15;;;3.50;99.90;;;;;;4979464;28;20038;-83
2022/01/24 05:04:34;;;;;;;8.70;4.38;;;3.50;99.90;;;;;;4965303;28;20062;-81
2022/01/24 05:07:00;;;;;;;8.18;4.25;;;3.40;99.90;;;;;;4971342;28;20475;-81
2022/01/24 05:09:38;;;;;;;7.05;4.30;;;3.30;99.90;;;;;;4964601;28;20065;-83
2022/01/24 05:12:18;;;;;;;8.55;4.32;;;3.20;99.90;;;;;;4970021;28;20089;-83
2022/01/24 05:23:57;;;;;;;8.68;4.80;;;3.20;99.90;;;;;;4961090;28;20069;-82
2022/01/24 05:26:52;;;;;;;7.80;4.15;;;3.20;99.90;;;;;;4983150;28;20027;-83
2022/01/24 05:29:39;;;;;;;7.72;4.70;;;3.20;99.90;;;;;;4965206;28;20538;-83
2022/01/24 05:32:08;;;;;;;6.40;4.50;;;3.20;99.90;;;;;;4982134;28;20107;-83
2022/01/24 05:34:35;;;;;;;7.57;4.07;;;3.20;99.90;;;;;;4966052;28;20022;-81
2022/01/24 05:37:02;;;;;;;6.95;4.35;;;3.20;99.90;;;;;;4965781;28;20034;-84
2022/01/24 05:39:34;;;;;;;7.82;4.20;;;3.20;99.90;;;;;;4978534;28;20117;-79
2022/01/24 05:42:10;;;;;;;6.32;4.20;;;3.20;99.90;;;;;;4985893;28;20046;-81
2022/01/24 05:44:39;;;;;;;9.05;4.88;;;3.20;99.90;;;;;;4967941;28;20035;-85
2022/01/24 05:47:08;;;;;;;7.47;4.00;;;3.20;99.90;;;;;;4960025;28;20290;-79
2022/01/24 05:49:37;;;;;;;7.78;4.57;;;3.20;99.90;;;;;;4970905;28;20031;-87
2022/01/24 05:52:09;;;;;;;6.93;4.03;;;3.30;99.90;;;;;;4984162;28;20027;-82
2022/01/24 05:54:36;;;;;;;6.75;4.25;;;3.20;99.90;;;;;;4982104;28;20061;-78
2022/01/24 05:57:03;;;;;;;7.57;4.18;;;3.30;99.90;;;;;;4957997;28;20047;-80
2022/01/24 05:59:29;;;;;;;8.45;4.70;;;3.30;99.90;;;;;;4956339;28;20051;-81
2022/01/24 06:01:55;;;;;;;6.85;4.38;;;3.20;99.90;;;;;;4957684;28;20023;-81
2022/01/24 06:04:21;;;;;;;6.43;3.88;;;3.20;99.90;;;;;;4972460;28;20034;-81
2022/01/24 06:06:47;;;;;;;8.52;5.18;;;3.20;99.90;;;;;;4957543;28;20031;-82
2022/01/24 06:09:13;;;;;;;8.45;4.72;;;3.20;99.90;;;;;;4956566;28;20085;-83
2022/01/24 06:11:40;;;;;;;8.13;4.75;;;3.10;99.90;;;;;;4958963;28;20042;-83
2022/01/24 06:14:07;;;;;;;8.07;4.53;;;3.10;99.90;;;;;;4971807;28;20029;-81
2022/01/24 06:16:33;;;;;;;8.02;4.60;;;3.10;99.90;;;;;;4955557;28;20083;-84
2022/01/24 06:19:00;;;;;;;7.32;4.60;;;3.10;99.90;;;;;;4973832;28;20030;-84
2022/01/24 06:21:26;;;;;;;8.48;5.20;;;3.10;99.90;;;;;;4960388;28;20027;-83
2022/01/24 06:23:53;;;;;;;8.85;4.53;;;3.10;99.90;;;;;;4951776;28;20030;-82
2022/01/24 06:26:24;;;;;;;8.30;4.95;;;3.10;99.90;;;;;;4974841;28;20034;-82
2022/01/24 06:28:50;;;;;;;9.38;4.93;;;3.10;99.90;;;;;;4963673;28;20087;-82
2022/01/24 06:31:15;;;;;;;8.85;5.32;;;3.10;99.90;;;;;;4964122;28;20031;-82
2022/01/24 06:33:41;;;;;;;10.05;5.15;;;4.30;99.90;;;;;;4959255;28;20037;-83
2022/01/24 06:36:07;;;;;;;9.73;5.55;;;3.10;99.90;;;;;;4960111;28;20035;-82
2022/01/24 06:38:32;;;;;;;9.40;5.30;;;3.00;99.90;;;;;;4957455;28;20122;-82
2022/01/24 06:40:58;;;;;;;9.80;5.28;;;4.20;99.90;;;;;;4959207;28;20093;-80
2022/01/24 06:43:24;;;;;;;8.15;5.03;;;3.50;99.90;;;;;;4976905;28;20038;-82
2022/01/24 06:45:50;;;;;;;7.85;5.10;;;4.30;99.90;;;;;;4962452;28;20063;-84
2022/01/24 06:48:16;;;;;;;8.82;4.93;;;2.90;99.90;;;;;;4994713;28;20027;-81
2022/01/24 06:50:42;;;;;;;9.32;5.22;;;3.70;99.90;;;;;;4978318;28;20311;-82
2022/01/24 06:53:08;;;;;;;7.22;4.57;;;3.10;99.90;;;;;;4963057;28;20419;-81
2022/01/24 06:55:34;;;;;;;9.07;5.47;;;3.10;99.90;;;;;;4956707;28;20127;-83
2022/01/24 06:58:00;;;;;;;9.20;4.78;;;4.50;99.90;;;;;;4992195;28;20471;-85
2022/01/24 07:00:26;;;;;;;8.35;4.68;;;3.10;99.90;;;;;;4965877;28;20022;-81
2022/01/24 07:02:56;;;;;;;9.07;5.10;;;3.10;99.90;;;;;;4965397;28;20110;-84
2022/01/24 07:05:22;;;;;;;10.68;5.63;;;3.60;99.90;;;;;;4968630;28;20030;-83
2022/01/24 07:07:48;;;;;;;8.95;5.18;;;4.00;99.90;;;;;;4986026;28;20046;-82
2022/01/24 07:10:14;;;;;;;9.38;5.07;;;3.10;99.90;;;;;;4969163;28;20035;-82
2022/01/24 07:12:40;;;;;;;8.32;5.40;;;4.90;99.90;;;;;;4963962;28;20054;-82
2022/01/24 07:15:10;;;;;;;8.05;4.90;;;3.10;99.90;;;;;;4966929;28;20023;-84
2022/01/24 07:20:22;;;;;;;9.35;5.22;;;4.60;99.90;;;;;;4991603;28;20041;-84
2022/01/24 07:22:47;;;;;;;9.60;5.65;;;2.90;99.90;;;;;;4990976;28;20035;-84
2022/01/24 07:25:13;;;;;;;9.85;5.63;;;2.90;99.90;;;;;;4975449;28;20027;-83
2022/01/24 07:27:39;;;;;;;10.98;6.15;;;2.80;99.90;;;;;;4974767;28;20058;-84
2022/01/24 07:30:05;;;;;;;9.73;5.07;;;2.80;99.90;;;;;;4973596;28;20031;-83
2022/01/24 07:32:31;;;;;;;10.43;5.85;;;2.80;99.90;;;;;;4991284;28;20035;-87
2022/01/24 07:34:58;;;;;;;11.68;5.57;;;2.80;99.90;;;;;;4972732;28;20053;-82
2022/01/24 07:37:25;;;;;;;8.18;5.18;;;2.80;99.90;;;;;;4974428;28;20031;-85
2022/01/24 07:39:52;;;;;;;8.80;5.75;;;2.60;99.90;;;;;;4975709;28;20041;-81
2022/01/24 07:42:28;;;;;;;10.93;5.82;;;3.60;99.90;;;;;;4974494;28;20030;-85
2022/01/24 07:44:55;;;;;;;10.27;5.95;;;3.70;99.90;;;;;;4977035;28;20058;-83
2022/01/24 07:47:21;;;;;;;10.85;6.15;;;2.70;99.90;;;;;;4970918;28;20380;-83
2022/01/24 07:49:46;;;;;;;11.45;6.38;;;4.90;99.90;;;;;;4971956;28;20061;-85
2022/01/24 07:52:12;;;;;;;11.50;6.00;;;2.80;99.90;;;;;;4976082;28;20030;-83
2022/01/24 07:54:42;;;;;;;12.85;6.53;;;3.50;99.90;;;;;;4974162;28;20058;-83
2022/01/24 07:57:10;;;;;;;13.05;6.38;;;2.80;99.90;;;;;;4974910;28;20091;-85
2022/01/24 07:59:40;;;;;;;12.60;6.90;;;2.80;99.90;;;;;;4990803;28;20264;-84
2022/01/24 08:02:11;;;;;;;10.48;6.55;;;2.80;99.90;;;;;;4976167;28;20022;-82
2022/01/24 08:04:37;;;;;;;10.48;6.43;;;2.90;99.90;;;;;;4972125;28;20038;-82
2022/01/24 08:07:03;;;;;;;13.50;6.45;;;2.90;99.90;;;;;;4973903;28;20062;-85
2022/01/24 08:09:29;;;;;;;11.80;6.93;;;2.90;99.90;;;;;;5003087;28;20047;-85
2022/01/24 08:11:55;;;;;;;10.13;6.88;;;2.90;99.90;;;;;;4969919;28;20035;-84
2022/01/24 08:14:21;;;;;;;10.27;6.28;;;2.80;99.90;;;;;;4971012;28;20027;-85
2022/01/24 08:16:47;;;;;;;10.90;6.93;;;3.90;99.90;;;;;;4971115;28;20388;-83
2022/01/24 08:19:12;;;;;;;9.63;6.10;;;4.50;99.90;;;;;;5001262;28;20031;-83
2022/01/24 08:21:38;;;;;;;10.25;6.40;;;2.90;99.90;;;;;;4973913;28;20034;-84
2022/01/24 08:24:06;;;;;;;10.23;6.05;;;2.90;99.90;;;;;;4972230;28;20063;-83
2022/01/24 08:26:31;;;;;;;10.52;5.80;;;3.00;99.90;;;;;;4970058;28;20038;-86
2022/01/24 08:28:57;;;;;;;11.30;6.05;;;3.00;99.90;;;;;;4983684;28;20451;-82
2022/01/24 08:31:23;;;;;;;10.10;6.00;;;4.10;99.90;;;;;;4973463;28;20031;-83
2022/01/24 08:33:49;;;;;;;11.35;6.70;;;4.70;99.90;;;;;;4968169;28;20027;-84
2022/01/24 08:36:14;;;;;;;10.20;5.68;;;3.30;99.90;;;;;;4975003;28;20086;-84
2022/01/24 08:38:40;;;;;;;9.15;5.70;;;3.00;99.90;;;;;;4971971;28;20038;-86
2022/01/24 08:41:16;;;;;;;9.55;6.20;;;3.40;99.90;;;;;;4983112;28;20035;-85
2022/01/24 08:46:14;;;;;;;10.18;5.65;;;3.30;99.90;;;;;;4986147;28;20027;-82
2022/01/24 08:48:42;;;;;;;9.88;6.07;;;3.90;99.90;;;;;;4970606;28;20074;-81
2022/01/24 08:51:07;;;;;;;12.25;5.57;;;3.40;99.90;;;;;;4987654;28;20042;-83
2022/01/24 08:53:34;;;;;;;10.20;5.90;;;3.40;99.90;;;;;;4972093;28;20030;-83
2022/01/24 08:56:01;;;;;;;8.57;5.80;;;5.10;99.90;;;;;;4968579;28;20003;-83
2022/01/24 08:58:28;;;;;;;8.82;5.63;;;3.50;99.90;;;;;;4979443;28;20041;-86
2022/01/24 09:00:54;;;;;;;9.57;6.10;;;5.30;99.90;;;;;;4971119;28;20027;-83
2022/01/24 09:03:20;;;;;;;9.13;5.85;;;3.80;99.90;;;;;;4975678;28;20025;-87
2022/01/24 09:05:48;;;;;;;12.70;7.03;;;3.70;99.90;;;;;;4971361;28;20061;-82
2022/01/24 09:08:14;;;;;;;9.30;5.60;;;3.80;99.90;;;;;;4968372;28;20034;-81
2022/01/24 09:10:40;;;;;;;12.23;6.15;;;5.40;99.90;;;;;;4969805;28;20038;-83
2022/01/24 09:13:09;;;;;;;10.90;6.07;;;3.80;99.90;;;;;;4969495;28;20031;-82
2022/01/24 09:15:36;;;;;;;11.10;5.50;;;5.60;99.90;;;;;;4996454;28;20067;-85
2022/01/24 09:18:02;;;;;;;9.48;5.93;;;3.90;99.90;;;;;;4970713;28;20031;-86
2022/01/24 09:20:28;;;;;;;9.07;5.75;;;3.80;99.90;;;;;;4967223;28;20035;-85
2022/01/24 09:22:54;;;;;;;11.65;6.47;;;3.90;99.90;;;;;;4967526;28;20057;-84
2022/01/24 09:25:22;;;;;;;8.80;5.78;;;4.00;99.90;;;;;;4966655;28;20031;-85
2022/01/24 09:27:48;;;;;;;8.80;5.57;;;5.00;99.90;;;;;;4969444;28;20327;-83
2022/01/24 09:30:18;;;;;;;8.30;5.22;;;4.00;99.90;;;;;;4970073;28;20027;-86
2022/01/24 09:32:44;;;;;;;11.52;5.95;;;4.10;99.90;;;;;;4969019;28;20026;-84
2022/01/24 09:35:11;;;;;;;10.35;5.75;;;5.20;99.90;;;;;;4989184;28;20023;-84
2022/01/24 09:37:38;;;;;;;10.82;5.25;;;4.20;99.90;;;;;;4968514;28;20386;-84
2022/01/24 09:40:04;;;;;;;9.40;5.63;;;4.90;99.90;;;;;;4967524;28;20026;-87
2022/01/24 09:42:31;;;;;;;9.23;5.90;;;4.50;99.90;;;;;;4962213;28;20032;-83
2022/01/24 09:44:57;;;;;;;10.43;6.20;;;5.40;99.90;;;;;;4978691;28;20042;-82
2022/01/24 09:47:23;;;;;;;10.07;6.10;;;4.40;99.90;;;;;;4974989;28;20038;-83
2022/01/24 09:49:50;;;;;;;10.07;5.63;;;4.50;99.90;;;;;;4967779;28;20027;-83
2022/01/24 09:52:16;;;;;;;10.30;5.80;;;4.30;99.90;;;;;;4972977;28;20034;-83
2022/01/24 09:54:42;;;;;;;9.02;5.35;;;5.30;99.90;;;;;;4967553;28;20022;-81
2022/01/24 09:57:08;;;;;;;8.38;5.07;;;5.00;99.90;;;;;;4966736;28;20468;-84
2022/01/24 09:59:34;;;;;;;8.02;5.53;;;6.10;99.90;;;;;;4969908;28;20058;-83
2022/01/24 10:02:01;;;;;;;8.98;4.80;;;4.50;99.90;;;;;;4970474;28;20053;-83
2022/01/24 10:04:28;;;;;;;9.02;5.18;;;4.50;99.90;;;;;;4969579;28;20043;-84
2022/01/24 10:07:02;;;;;;;9.15;4.95;;;4.60;99.90;;;;;;4965093;28;20035;-83
2022/01/24 10:09:28;;;;;;;8.65;5.13;;;4.70;99.90;;;;;;4978504;28;20037;-85
2022/01/24 10:12:08;;;;;;;8.77;5.10;;;7.20;99.90;;;;;;4986377;28;20027;-83
2022/01/24 10:17:24;;;;;;;12.82;5.82;;;5.00;99.90;;;;;;4985758;28;20325;-82
2022/01/24 10:19:50;;;;;;;9.02;5.07;;;5.00;99.90;;;;;;4964928;28;20026;-83
2022/01/24 10:22:16;;;;;;;8.25;5.05;;;5.20;99.90;;;;;;4980534;28;20030;-83
2022/01/24 10:24:48;;;;;;;10.75;5.63;;;5.40;99.90;;;;;;4965886;28;20102;-85
2022/01/24 10:27:28;;;;;;;11.80;5.68;;;5.80;99.90;;;;;;4960646;28;20034;-83
2022/01/24 10:29:58;;;;;;;10.10;5.60;;;5.20;99.90;;;;;;4962486;28;20041;-86
2022/01/24 10:32:44;;;;;;;13.50;5.65;;;6.80;99.90;;;;;;4962490;28;20033;-82
2022/01/24 10:35:37;;;;;;;9.35;5.55;;;5.10;99.90;;;;;;4980575;28;20039;-81
2022/01/24 10:38:16;;;;;;;9.82;5.95;;;5.20;99.90;;;;;;4961332;28;20062;-80
2022/01/24 10:43:23;;;;;;;12.05;5.55;;;5.40;99.90;;;;;;4975784;28;20112;-86
2022/01/24 10:45:50;;;;;;;9.65;4.95;;;5.50;99.90;;;;;;4957846;28;20038;-81
2022/01/24 10:48:24;;;;;;;7.35;4.97;;;6.00;99.90;;;;;;4946342;28;20065;-83
2022/01/24 10:51:05;;;;;;;8.48;5.25;;;5.60;99.90;;;;;;4963335;28;20027;-85
2022/01/24 10:53:36;;;;;;;9.85;5.55;;;5.80;99.90;;;;;;4963172;28;20037;-83
2022/01/24 10:56:03;;;;;;;9.25;5.30;;;5.70;99.90;;;;;;4980897;28;20115;-86
2022/01/24 10:58:34;;;;;;;15.60;5.88;;;5.60;99.90;;;;;;4966358;28;20043;-83
2022/01/24 11:00:59;;;;;;;8.13;5.20;;;6.20;99.90;;;;;;4979534;28;20037;-83
2022/01/24 11:03:25;;;;;;;9.48;5.47;;;5.60;99.90;;;;;;4962709;28;20022;-83
2022/01/24 11:05:51;;;;;;;9.13;4.78;;;5.80;99.90;;;;;;4988611;28;20027;-82
2022/01/24 11:08:17;;;;;;;8.55;5.15;;;5.80;99.90;;;;;;4965688;28;20031;-85
2022/01/24 11:10:51;;;;;;;9.55;5.22;;;5.80;99.90;;;;;;4967740;28;20097;-84
2022/01/24 11:13:24;;;;;;;9.02;5.07;;;5.80;99.90;;;;;;4964385;28;20035;-85
2022/01/24 11:15:57;;;;;;;9.70;5.72;;;5.80;99.90;;;;;;4963838;28;20226;-81
2022/01/24 11:18:24;;;;;;;13.93;5.68;;;6.00;99.90;;;;;;4965478;28;20045;-84
2022/01/24 11:21:01;;;;;;;7.90;4.93;;;5.80;99.90;;;;;;4965263;28;20062;-83
2022/01/24 11:23:39;;;;;;;8.23;5.15;;;5.10;99.90;;;;;;4968333;28;20038;-84
2022/01/24 11:26:05;;;;;;;8.48;4.97;;;6.90;99.90;;;;;;4974250;28;20039;-85
2022/01/24 11:28:32;;;;;;;8.15;5.07;;;6.10;99.90;;;;;;4965686;28;21249;-84
2022/01/24 11:31:11;;;;;;;7.55;5.05;;;6.20;99.90;;;;;;4976695;28;20327;-86
2022/01/24 11:33:41;;;;;;;10.15;5.00;;;6.30;99.90;;;;;;4965500;28;20069;-88
2022/01/24 11:36:08;;;;;;;9.60;5.15;;;6.20;99.90;;;;;;4961444;28;20088;-85
2022/01/24 11:38:42;;;;;;;9.38;5.13;;;6.30;99.90;;;;;;4962188;28;20072;-83
2022/01/24 11:41:32;;;;;;;8.45;5.03;;;6.70;99.90;;;;;;4975068;28;20046;-84
2022/01/24 11:44:06;;;;;;;9.13;5.28;;;6.50;99.90;;;;;;4959851;28;20042;-86
2022/01/24 11:46:52;;;;;;;8.60;4.95;;;6.60;99.90;;;;;;4965555;28;20066;-85
2022/01/24 11:49:21;;;;;;;9.43;5.35;;;6.60;99.90;;;;;;4961520;28;20026;-84
2022/01/24 11:52:02;;;;;;;9.30;5.18;;;6.70;99.90;;;;;;4964805;28;20043;-84
2022/01/24 11:54:56;;;;;;;9.73;5.47;;;6.80;99.90;;;;;;4969618;28;20086;-84
2022/01/24 11:57:36;;;;;;;10.32;5.22;;;6.70;99.90;;;;;;4957562;28;20090;-85
2022/01/24 12:00:05;;;;;;;9.13;5.25;;;6.70;99.90;;;;;;4980248;28;20164;-84
2022/01/24 12:02:42;;;;;;;11.57;5.70;;;6.60;99.90;;;;;;4956483;28;20039;-87
2022/01/24 12:05:20;;;;;;;7.00;4.90;;;6.80;99.90;;;;;;4958615;28;20035;-87
2022/01/24 12:07:51;;;;;;;7.47;5.03;;;6.80;99.90;;;;;;4974748;28;20271;-82
2022/01/24 12:10:29;;;;;;;10.00;5.20;;;6.80;99.90;;;;;;4955310;28;20038;-83
2022/01/24 12:13:13;;;;;;;8.82;5.00;;;7.50;99.90;;;;;;4975130;28;20539;-83
2022/01/24 12:15:39;;;;;;;11.25;5.20;;;7.00;99.90;;;;;;4957559;28;20023;-83
2022/01/24 12:18:16;;;;;;;7.90;5.30;;;6.90;99.90;;;;;;4972161;28;20513;-85
2022/01/24 12:20:42;;;;;;;8.20;5.13;;;6.90;99.90;;;;;;4956820;28;20035;-85
2022/01/24 12:23:20;;;;;;;9.98;5.25;;;7.50;99.90;;;;;;4958392;28;20090;-83
2022/01/24 12:26:00;;;;;;;10.60;6.63;;;7.00;99.90;;;;;;4991612;28;20031;-85
2022/01/24 12:28:32;;;;;;;7.88;4.97;;;7.00;99.90;;;;;;4988864;28;20031;-87
2022/01/24 12:31:20;;;;;;;11.02;5.63;;;7.00;99.90;;;;;;4956308;28;20315;-83
2022/01/24 12:33:55;;;;;;;7.75;5.28;;;7.10;99.90;;;;;;4988565;28;20101;-86
2022/01/24 12:37:00;;;;;;;9.90;5.07;;;7.20;99.90;;;;;;4973334;28;20030;-85
2022/01/24 12:39:45;;;;;;;10.50;5.57;;;7.20;99.90;;;;;;4994888;28;20019;-85
2022/01/24 12:42:18;;;;;;;10.57;5.40;;;7.30;99.90;;;;;;4976682;28;20034;-87
2022/01/24 12:47:15;;;;;;;9.40;5.45;;;7.20;99.90;;;;;;4975825;28;20038;-87
2022/01/24 12:49:43;;;;;;;10.55;5.13;;;7.30;99.90;;;;;;4962416;28;20023;-88
2022/01/24 12:52:11;;;;;;;9.65;5.05;;;7.30;99.90;;;;;;4957379;28;20039;-84
2022/01/24 12:54:39;;;;;;;13.90;5.10;;;7.30;99.90;;;;;;4960890;28;20027;-88
2022/01/24 12:57:11;;;;;;;8.70;5.47;;;7.30;99.90;;;;;;4956827;28;20486;-87
2022/01/24 12:59:38;;;;;;;8.30;4.68;;;7.40;99.90;;;;;;4968335;28;20440;-87
2022/01/24 13:02:05;;;;;;;8.82;4.63;;;7.40;99.90;;;;;;4974296;28;20023;-84
2022/01/24 13:04:37;;;;;;;13.50;7.65;;;7.30;99.90;;;;;;4963085;28;20478;-84
2022/01/24 13:07:08;;;;;;;9.77;5.65;;;7.30;99.90;;;;;;4963882;28;20027;-85
2022/01/24 13:09:37;;;;;;;7.00;4.82;;;7.30;99.90;;;;;;4959230;28;20033;-86
2022/01/24 13:12:07;;;;;;;9.48;4.95;;;7.30;99.90;;;;;;4964826;28;20239;-84
2022/01/24 13:14:54;;;;;;;12.20;5.43;;;7.40;99.90;;;;;;4964215;28;20031;-88
2022/01/24 13:20:31;;;;;;;8.48;5.22;;;9.00;99.90;;;;;;4982323;28;20030;-88
2022/01/24 13:23:04;;;;;;;8.75;4.97;;;7.50;99.90;;;;;;4962873;28;20038;-86
2022/01/24 13:25:38;;;;;;;7.30;4.82;;;7.60;99.90;;;;;;4962039;28;20033;-85
2022/01/24 13:28:12;;;;;;;8.55;5.10;;;7.60;99.90;;;;;;4956056;28;20092;-87
2022/01/24 13:30:45;;;;;;;7.78;4.65;;;7.60;99.90;;;;;;4959700;28;20527;-85
2022/01/24 13:33:19;;;;;;;7.82;5.00;;;7.50;99.90;;;;;;4974580;28;20054;-86
2022/01/24 13:35:50;;;;;;;9.52;4.95;;;7.50;99.90;;;;;;4962521;28;20035;-85
2022/01/24 13:38:20;;;;;;;8.15;4.85;;;7.50;99.90;;;;;;4959718;28;20023;-87
2022/01/24 13:40:59;;;;;;;12.15;5.55;;;8.50;99.90;;;;;;4976748;28;20585;-84
2022/01/24 13:43:46;;;;;;;8.07;5.35;;;7.40;99.90;;;;;;4979095;28;20174;-84
2022/01/24 13:46:22;;;;;;;8.35;4.60;;;7.40;99.90;;;;;;4986101;28;20134;-87
2022/01/24 13:48:57;;;;;;;10.27;4.90;;;7.50;99.90;;;;;;4960886;28;20027;-86
2022/01/24 13:51:36;;;;;;;9.13;4.68;;;7.50;99.90;;;;;;4974910;28;20530;-84
2022/01/24 13:54:05;;;;;;;12.23;5.05;;;7.70;99.90;;;;;;4959987;28;20023;-86
2022/01/24 13:56:43;;;;;;;8.40;4.45;;;7.60;99.90;;;;;;4960119;28;20030;-87
2022/01/24 13:59:19;;;;;;;8.32;5.10;;;7.70;99.90;;;;;;4960576;28;20051;-81
2022/01/24 14:02:00;;;;;;;8.48;4.97;;;7.50;99.90;;;;;;4973909;28;20403;-85
2022/01/24 14:04:36;;;;;;;;;;;7.50;99.90;;;;;;4991122;28;20030;-86
2022/01/24 14:07:06;;;;;;;10.00;4.35;;;7.50;99.90;;;;;;4974889;28;19910;-85
2022/01/24 14:09:46;;;;;;;8.73;4.57;;;7.50;99.90;;;;;;4939942;28;20069;-85
2022/01/24 14:12:17;;;;;;;6.72;4.43;;;7.50;99.90;;;;;;4960805;28;20515;-84
2022/01/24 14:14:51;;;;;;;8.15;5.47;;;8.10;99.90;;;;;;4959723;28;20153;-85
2022/01/24 14:20:00;;;;;;;8.63;5.05;;;7.80;99.90;;;;;;4977622;28;20023;-87
2022/01/24 14:22:51;;;;;;;9.52;5.00;;;7.60;99.90;;;;;;4963327;28;20019;-89
2022/01/24 14:25:26;;;;;;;8.32;4.78;;;7.60;99.90;;;;;;4966787;28;20031;-85
2022/01/24 14:27:58;;;;;;;10.05;4.00;;;7.60;99.90;;;;;;4974856;28;20031;-88
2022/01/24 14:30:31;;;;;;;9.25;4.93;;;7.60;99.90;;;;;;4963865;28;20046;-86
2022/01/24 14:33:20;;;;;;;8.57;4.63;;;7.50;99.90;;;;;;4963834;28;20105;-85
2022/01/24 14:35:53;;;;;;;9.00;4.35;;;7.60;99.90;;;;;;4959136;28;20027;-86
2022/01/24 14:38:35;;;;;;;9.85;4.43;;;7.60;99.90;;;;;;4958726;28;20147;-88
2022/01/24 14:41:10;;;;;;;10.85;4.60;;;7.60;99.90;;;;;;4991558;28;20042;-84
2022/01/24 14:46:27;;;;;;;8.13;4.93;;;7.50;99.90;;;;;;4976200;28;20377;-85
2022/01/24 14:49:05;;;;;;;7.55;3.83;;;7.60;99.90;;;;;;4958920;28;20023;-86
2022/01/24 14:51:33;;;;;;;8.52;5.28;;;7.50;99.90;;;;;;4971449;28;20037;-86
2022/01/24 14:54:05;;;;;;;8.05;4.32;;;7.50;99.90;;;;;;4977615;28;20049;-86
2022/01/24 14:56:32;;;;;;;13.43;5.38;;;7.50;99.90;;;;;;4964426;28;20028;-88
2022/01/24 14:58:59;;;;;;;8.82;4.60;;;7.50;99.90;;;;;;4958961;28;20015;-88
2022/01/24 15:01:25;;;;;;;10.68;5.05;;;7.50;99.90;;;;;;4959503;28;20058;-85
2022/01/24 15:03:51;;;;;;;8.15;4.50;;;7.40;99.90;;;;;;4971447;28;20447;-85
2022/01/24 15:06:18;;;;;;;8.23;5.03;;;7.40;99.90;;;;;;4965041;28;20027;-85
2022/01/24 15:08:46;;;;;;;9.43;4.82;;;7.30;99.90;;;;;;4962829;28;20408;-86
2022/01/24 15:11:15;;;;;;;7.80;4.68;;;7.30;99.90;;;;;;4959478;28;20187;-87
2022/01/24 15:13:47;;;;;;;9.05;4.78;;;7.20;99.90;;;;;;4967483;28;20041;-83
2022/01/24 15:16:16;;;;;;;9.20;5.30;;;7.30;99.90;;;;;;4961833;28;20027;-84
2022/01/24 15:25:20;;;;;;;8.23;4.32;;;7.10;99.90;;;;;;4976119;28;20439;-89